sensor_id;sensor_type;location;lat;lon;timestamp;temperature;humidity
6672;DHT22;3372;48.690;12.362;2023-02-15T00:01:09;2.20;99.90
6672;DHT22;3372;48.690;12.362;2023-02-15T00:03:35;2.20;99.90
6672;DHT22;3372;48.690;12.362;2023-02-15T00:06:01;2.10;99.90
6672;DHT22;3372;48.690;12.362;2023-02-15T00:08:27;2.10;99.90
6672;DHT22;3372;48.690;12.362;2023-02-15T00:10:53;2.20;99.90
6672;DHT22;3372;48.690;12.362;2023-02-15T00:13:18;2.20;99.90
6672;DHT22;3372;48.690;12.362;2023-02-15T00:15:44;2.20;99.90
6672;DHT22;3372;48.690;12.362;2023-02-15T00:18:10;2.20;99.90
6672;DHT22;3372;48.690;12.362;2023-02-15T00:20:35;2.20;99.90
6672;DHT22;3372;48.690;12.362;2023-02-15T00:23:01;2.10;99.90
6672;DHT22;3372;48.690;12.362;2023-02-15T00:25:26;2.10;99.90
6672;DHT22;3372;48.690;12.362;2023-02-15T00:27:52;2.10;99.90
6672;DHT22;3372;48.690;12.362;2023-02-15T00:30:18;2.10;99.90
6672;DHT22;3372;48.690;12.362;2023-02-15T00:32:43;2.20;99.90
6672;DHT22;3372;48.690;12.362;2023-02-15T00:35:09;2.20;99.90
6672;DHT22;3372;48.690;12.362;2023-02-15T00:37:35;2.20;99.90
6672;DHT22;3372;48.690;12.362;2023-02-15T00:40:01;2.20;99.90
6672;DHT22;3372;48.690;12.362;2023-02-15T00:42:26;2.20;99.90
6672;DHT22;3372;48.690;12.362;2023-02-15T00:44:52;2.20;99.90
6672;DHT22;3372;48.690;12.362;2023-02-15T00:47:17;2.10;99.90
6672;DHT22;3372;48.690;12.362;2023-02-15T00:49:43;2.10;99.90
6672;DHT22;3372;48.690;12.362;2023-02-15T00:52:09;2.10;99.90
6672;DHT22;3372;48.690;12.362;2023-02-15T00:54:34;2.10;99.90
6672;DHT22;3372;48.690;12.362;2023-02-15T00:57:00;2.10;99.90
6672;DHT22;3372;48.690;12.362;2023-02-15T00:59:26;1.80;99.90
6672;DHT22;3372;48.690;12.362;2023-02-15T01:01:51;2.20;99.90
6672;DHT22;3372;48.690;12.362;2023-02-15T01:04:17;2.20;99.90
6672;DHT22;3372;48.690;12.362;2023-02-15T01:06:43;2.10;99.90
6672;DHT22;3372;48.690;12.362;2023-02-15T01:09:08;2.10;99.90
6672;DHT22;3372;48.690;12.362;2023-02-15T01:11:34;2.10;99.90
6672;DHT22;3372;48.690;12.362;2023-02-15T01:13:59;2.00;99.90
6672;DHT22;3372;48.690;12.362;2023-02-15T01:16:26;2.00;99.90
6672;DHT22;3372;48.690;12.362;2023-02-15T01:18:52;1.90;99.90
6672;DHT22;3372;48.690;12.362;2023-02-15T01:21:21;1.90;99.90
6672;DHT22;3372;48.690;12.362;2023-02-15T01:23:47;2.00;99.90
6672;DHT22;3372;48.690;12.362;2023-02-15T01:26:13;1.70;99.90
6672;DHT22;3372;48.690;12.362;2023-02-15T01:28:39;2.00;99.90
6672;DHT22;3372;48.690;12.362;2023-02-15T01:31:06;2.00;99.90
6672;DHT22;3372;48.690;12.362;2023-02-15T01:33:32;2.00;99.90
6672;DHT22;3372;48.690;12.362;2023-02-15T01:35:58;1.90;99.90
6672;DHT22;3372;48.690;12.362;2023-02-15T01:38:24;1.90;99.90
6672;DHT22;3372;48.690;12.362;2023-02-15T01:40:53;1.90;99.90
6672;DHT22;3372;48.690;12.362;2023-02-15T01:43:20;2.00;99.90
6672;DHT22;3372;48.690;12.362;2023-02-15T01:45:47;2.00;99.90
6672;DHT22;3372;48.690;12.362;2023-02-15T01:48:20;2.00;99.90
6672;DHT22;3372;48.690;12.362;2023-02-15T01:50:54;2.00;99.90
6672;DHT22;3372;48.690;12.362;2023-02-15T01:53:29;2.10;99.90
6672;DHT22;3372;48.690;12.362;2023-02-15T01:56:02;1.70;99.90
6672;DHT22;3372;48.690;12.362;2023-02-15T01:58:30;2.10;99.90
6672;DHT22;3372;48.690;12.362;2023-02-15T02:00:59;1.60;99.90
6672;DHT22;3372;48.690;12.362;2023-02-15T02:03:47;2.00;99.90
6672;DHT22;3372;48.690;12.362;2023-02-15T02:06:14;1.90;99.90
6672;DHT22;3372;48.690;12.362;2023-02-15T02:08:41;1.90;99.90
6672;DHT22;3372;48.690;12.362;2023-02-15T02:11:11;2.00;99.90
6672;DHT22;3372;48.690;12.362;2023-02-15T02:13:37;2.10;99.90
6672;DHT22;3372;48.690;12.362;2023-02-15T02:19:14;2.20;99.90
6672;DHT22;3372;48.690;12.362;2023-02-15T02:22:00;2.00;99.90
6672;DHT22;3372;48.690;12.362;2023-02-15T02:35:16;1.90;99.90
6672;DHT22;3372;48.690;12.362;2023-02-15T02:38:04;2.00;99.90
6672;DHT22;3372;48.690;12.362;2023-02-15T02:46:28;1.80;99.90
6672;DHT22;3372;48.690;12.362;2023-02-15T02:48:55;1.80;99.90
6672;DHT22;3372;48.690;12.362;2023-02-15T02:51:22;1.90;99.90
6672;DHT22;3372;48.690;12.362;2023-02-15T02:53:54;1.90;99.90
6672;DHT22;3372;48.690;12.362;2023-02-15T02:56:55;2.00;99.90
6672;DHT22;3372;48.690;12.362;2023-02-15T02:59:23;2.00;99.90
6672;DHT22;3372;48.690;12.362;2023-02-15T03:02:21;2.00;99.90
6672;DHT22;3372;48.690;12.362;2023-02-15T03:04:47;2.00;99.90
6672;DHT22;3372;48.690;12.362;2023-02-15T03:07:19;1.90;99.90
6672;DHT22;3372;48.690;12.362;2023-02-15T03:09:51;1.90;99.90
6672;DHT22;3372;48.690;12.362;2023-02-15T03:12:24;2.20;99.90
6672;DHT22;3372;48.690;12.362;2023-02-15T03:15:10;2.00;99.90
6672;DHT22;3372;48.690;12.362;2023-02-15T03:17:42;2.00;99.90
6672;DHT22;3372;48.690;12.362;2023-02-15T03:20:19;1.90;99.90
6672;DHT22;3372;48.690;12.362;2023-02-15T03:22:48;2.00;99.90
6672;DHT22;3372;48.690;12.362;2023-02-15T03:25:30;1.80;99.90
6672;DHT22;3372;48.690;12.362;2023-02-15T03:28:02;1.80;99.90
6672;DHT22;3372;48.690;12.362;2023-02-15T03:30:30;1.80;99.90
6672;DHT22;3372;48.690;12.362;2023-02-15T03:32:58;1.90;99.90
6672;DHT22;3372;48.690;12.362;2023-02-15T03:35:33;2.00;99.90
6672;DHT22;3372;48.690;12.362;2023-02-15T03:38:03;2.00;99.90
6672;DHT22;3372;48.690;12.362;2023-02-15T03:40:34;1.90;99.90
6672;DHT22;3372;48.690;12.362;2023-02-15T03:46:52;1.90;99.90
6672;DHT22;3372;48.690;12.362;2023-02-15T03:49:55;1.90;99.90
6672;DHT22;3372;48.690;12.362;2023-02-15T03:52:25;1.80;99.90
6672;DHT22;3372;48.690;12.362;2023-02-15T03:54:52;2.00;99.90
6672;DHT22;3372;48.690;12.362;2023-02-15T03:57:22;1.80;99.90
6672;DHT22;3372;48.690;12.362;2023-02-15T04:00:17;1.80;99.90
6672;DHT22;3372;48.690;12.362;2023-02-15T04:05:43;1.70;99.90
6672;DHT22;3372;48.690;12.362;2023-02-15T04:08:10;1.70;99.90
6672;DHT22;3372;48.690;12.362;2023-02-15T04:10:36;1.80;99.90
6672;DHT22;3372;48.690;12.362;2023-02-15T04:13:31;1.70;99.90
6672;DHT22;3372;48.690;12.362;2023-02-15T04:15:57;1.70;99.90
6672;DHT22;3372;48.690;12.362;2023-02-15T04:18:42;1.70;99.90
6672;DHT22;3372;48.690;12.362;2023-02-15T04:21:29;1.70;99.90
6672;DHT22;3372;48.690;12.362;2023-02-15T04:24:13;1.70;99.90
6672;DHT22;3372;48.690;12.362;2023-02-15T04:26:58;1.70;99.90
6672;DHT22;3372;48.690;12.362;2023-02-15T04:29:25;1.70;99.90
6672;DHT22;3372;48.690;12.362;2023-02-15T04:31:54;1.80;99.90
6672;DHT22;3372;48.690;12.362;2023-02-15T04:34:20;1.90;99.90
6672;DHT22;3372;48.690;12.362;2023-02-15T04:36:46;1.80;99.90
6672;DHT22;3372;48.690;12.362;2023-02-15T04:39:15;1.80;99.90
6672;DHT22;3372;48.690;12.362;2023-02-15T04:41:41;1.90;99.90
6672;DHT22;3372;48.690;12.362;2023-02-15T04:44:07;1.80;99.90
6672;DHT22;3372;48.690;12.362;2023-02-15T04:46:33;1.80;99.90
6672;DHT22;3372;48.690;12.362;2023-02-15T04:48:59;1.80;99.90
6672;DHT22;3372;48.690;12.362;2023-02-15T04:51:24;1.80;99.90
6672;DHT22;3372;48.690;12.362;2023-02-15T04:53:50;1.60;99.90
6672;DHT22;3372;48.690;12.362;2023-02-15T04:56:18;1.60;99.90
6672;DHT22;3372;48.690;12.362;2023-02-15T04:58:44;1.60;99.90
6672;DHT22;3372;48.690;12.362;2023-02-15T05:01:10;1.60;99.90
6672;DHT22;3372;48.690;12.362;2023-02-15T05:03:36;1.70;99.90
6672;DHT22;3372;48.690;12.362;2023-02-15T05:06:02;1.60;99.90
6672;DHT22;3372;48.690;12.362;2023-02-15T05:08:28;1.60;99.90
6672;DHT22;3372;48.690;12.362;2023-02-15T05:10:53;1.60;99.90
6672;DHT22;3372;48.690;12.362;2023-02-15T05:13:19;1.60;99.90
6672;DHT22;3372;48.690;12.362;2023-02-15T05:15:49;1.70;99.90
6672;DHT22;3372;48.690;12.362;2023-02-15T05:18:16;1.70;99.90
6672;DHT22;3372;48.690;12.362;2023-02-15T05:20:43;1.70;99.90
6672;DHT22;3372;48.690;12.362;2023-02-15T05:23:08;1.70;99.90
6672;DHT22;3372;48.690;12.362;2023-02-15T05:25:34;1.70;99.90
6672;DHT22;3372;48.690;12.362;2023-02-15T05:28:18;1.70;99.90
6672;DHT22;3372;48.690;12.362;2023-02-15T05:30:58;1.70;99.90
6672;DHT22;3372;48.690;12.362;2023-02-15T05:33:26;1.60;99.90
6672;DHT22;3372;48.690;12.362;2023-02-15T05:35:51;1.70;99.90
6672;DHT22;3372;48.690;12.362;2023-02-15T05:38:17;1.80;99.90
6672;DHT22;3372;48.690;12.362;2023-02-15T05:40:42;1.70;99.90
6672;DHT22;3372;48.690;12.362;2023-02-15T05:43:08;1.70;99.90
6672;DHT22;3372;48.690;12.362;2023-02-15T05:45:34;1.70;99.90
6672;DHT22;3372;48.690;12.362;2023-02-15T05:48:00;1.70;99.90
6672;DHT22;3372;48.690;12.362;2023-02-15T05:50:26;1.70;99.90
6672;DHT22;3372;48.690;12.362;2023-02-15T05:52:52;1.70;99.90
6672;DHT22;3372;48.690;12.362;2023-02-15T05:55:18;1.70;99.90
6672;DHT22;3372;48.690;12.362;2023-02-15T05:57:43;1.70;99.90
6672;DHT22;3372;48.690;12.362;2023-02-15T06:00:09;1.70;99.90
6672;DHT22;3372;48.690;12.362;2023-02-15T06:02:36;1.60;99.90
6672;DHT22;3372;48.690;12.362;2023-02-15T06:05:04;1.60;99.90
6672;DHT22;3372;48.690;12.362;2023-02-15T06:07:30;1.60;99.90
6672;DHT22;3372;48.690;12.362;2023-02-15T06:09:55;1.60;99.90
6672;DHT22;3372;48.690;12.362;2023-02-15T06:12:21;1.50;99.90
6672;DHT22;3372;48.690;12.362;2023-02-15T06:14:46;1.60;99.90
6672;DHT22;3372;48.690;12.362;2023-02-15T06:17:12;1.60;99.90
6672;DHT22;3372;48.690;12.362;2023-02-15T06:19:37;1.60;99.90
6672;DHT22;3372;48.690;12.362;2023-02-15T06:22:03;1.60;99.90
6672;DHT22;3372;48.690;12.362;2023-02-15T06:24:29;1.60;99.90
6672;DHT22;3372;48.690;12.362;2023-02-15T06:26:54;1.60;99.90
6672;DHT22;3372;48.690;12.362;2023-02-15T06:29:20;1.60;99.90
6672;DHT22;3372;48.690;12.362;2023-02-15T06:31:45;1.70;99.90
6672;DHT22;3372;48.690;12.362;2023-02-15T06:34:12;1.60;99.90
6672;DHT22;3372;48.690;12.362;2023-02-15T06:36:37;1.70;99.90
6672;DHT22;3372;48.690;12.362;2023-02-15T06:39:03;1.60;99.90
6672;DHT22;3372;48.690;12.362;2023-02-15T06:41:29;1.50;99.90
6672;DHT22;3372;48.690;12.362;2023-02-15T06:43:55;1.50;99.90
6672;DHT22;3372;48.690;12.362;2023-02-15T06:46:20;1.50;99.90
6672;DHT22;3372;48.690;12.362;2023-02-15T06:48:46;1.40;99.90
6672;DHT22;3372;48.690;12.362;2023-02-15T06:51:11;1.50;99.90
6672;DHT22;3372;48.690;12.362;2023-02-15T06:53:37;1.50;99.90
6672;DHT22;3372;48.690;12.362;2023-02-15T06:56:07;1.50;99.90
6672;DHT22;3372;48.690;12.362;2023-02-15T06:58:35;1.50;99.90
6672;DHT22;3372;48.690;12.362;2023-02-15T07:01:00;1.60;99.90
6672;DHT22;3372;48.690;12.362;2023-02-15T07:03:26;1.60;99.90
6672;DHT22;3372;48.690;12.362;2023-02-15T07:05:56;1.60;99.90
6672;DHT22;3372;48.690;12.362;2023-02-15T07:08:23;1.60;99.90
6672;DHT22;3372;48.690;12.362;2023-02-15T07:10:50;1.60;99.90
6672;DHT22;3372;48.690;12.362;2023-02-15T07:13:15;1.60;99.90
6672;DHT22;3372;48.690;12.362;2023-02-15T07:15:41;1.60;99.90
6672;DHT22;3372;48.690;12.362;2023-02-15T07:18:06;1.70;99.90
6672;DHT22;3372;48.690;12.362;2023-02-15T07:20:32;1.60;99.90
6672;DHT22;3372;48.690;12.362;2023-02-15T07:23:01;1.50;99.90
6672;DHT22;3372;48.690;12.362;2023-02-15T07:25:27;1.50;99.90
6672;DHT22;3372;48.690;12.362;2023-02-15T07:27:57;1.50;99.90
6672;DHT22;3372;48.690;12.362;2023-02-15T07:30:22;1.60;99.90
6672;DHT22;3372;48.690;12.362;2023-02-15T07:32:48;1.60;99.90
6672;DHT22;3372;48.690;12.362;2023-02-15T07:35:33;1.60;99.90
6672;DHT22;3372;48.690;12.362;2023-02-15T07:37:58;1.50;99.90
6672;DHT22;3372;48.690;12.362;2023-02-15T07:40:24;1.50;99.90
6672;DHT22;3372;48.690;12.362;2023-02-15T07:42:50;1.70;99.90
6672;DHT22;3372;48.690;12.362;2023-02-15T07:45:18;1.60;99.90
6672;DHT22;3372;48.690;12.362;2023-02-15T07:47:44;1.60;99.90
6672;DHT22;3372;48.690;12.362;2023-02-15T07:50:09;1.70;99.90
6672;DHT22;3372;48.690;12.362;2023-02-15T07:52:35;1.60;99.90
6672;DHT22;3372;48.690;12.362;2023-02-15T07:55:00;1.70;99.90
6672;DHT22;3372;48.690;12.362;2023-02-15T07:57:26;1.60;99.90
6672;DHT22;3372;48.690;12.362;2023-02-15T07:59:52;1.60;99.90
6672;DHT22;3372;48.690;12.362;2023-02-15T08:02:17;1.70;99.90
6672;DHT22;3372;48.690;12.362;2023-02-15T08:04:43;1.60;99.90
6672;DHT22;3372;48.690;12.362;2023-02-15T08:07:08;1.60;99.90
6672;DHT22;3372;48.690;12.362;2023-02-15T08:09:34;1.60;99.90
6672;DHT22;3372;48.690;12.362;2023-02-15T08:11:59;1.50;99.90
6672;DHT22;3372;48.690;12.362;2023-02-15T08:14:27;1.50;99.90
6672;DHT22;3372;48.690;12.362;2023-02-15T08:16:54;1.30;99.90
6672;DHT22;3372;48.690;12.362;2023-02-15T08:19:23;1.40;99.90
6672;DHT22;3372;48.690;12.362;2023-02-15T08:21:55;1.50;99.90
6672;DHT22;3372;48.690;12.362;2023-02-15T08:24:23;1.60;99.90
6672;DHT22;3372;48.690;12.362;2023-02-15T08:26:50;1.50;99.90
6672;DHT22;3372;48.690;12.362;2023-02-15T08:29:18;1.40;99.90
6672;DHT22;3372;48.690;12.362;2023-02-15T08:31:44;1.40;99.90
6672;DHT22;3372;48.690;12.362;2023-02-15T08:34:13;1.40;99.90
6672;DHT22;3372;48.690;12.362;2023-02-15T08:36:39;1.40;99.90
6672;DHT22;3372;48.690;12.362;2023-02-15T08:39:05;1.30;99.90
6672;DHT22;3372;48.690;12.362;2023-02-15T08:41:33;1.30;99.90
6672;DHT22;3372;48.690;12.362;2023-02-15T08:44:01;1.30;99.90
6672;DHT22;3372;48.690;12.362;2023-02-15T08:46:30;1.30;99.90
6672;DHT22;3372;48.690;12.362;2023-02-15T08:48:56;1.40;99.90
6672;DHT22;3372;48.690;12.362;2023-02-15T08:51:24;1.40;99.90
6672;DHT22;3372;48.690;12.362;2023-02-15T08:53:53;1.40;99.90
6672;DHT22;3372;48.690;12.362;2023-02-15T08:56:21;1.40;99.90
6672;DHT22;3372;48.690;12.362;2023-02-15T08:58:47;1.40;99.90
6672;DHT22;3372;48.690;12.362;2023-02-15T09:01:15;1.40;99.90
6672;DHT22;3372;48.690;12.362;2023-02-15T09:03:44;1.50;99.90
6672;DHT22;3372;48.690;12.362;2023-02-15T09:06:11;1.50;99.90
6672;DHT22;3372;48.690;12.362;2023-02-15T09:08:37;1.40;99.90
6672;DHT22;3372;48.690;12.362;2023-02-15T09:11:17;1.50;99.90
6672;DHT22;3372;48.690;12.362;2023-02-15T09:13:48;1.40;99.90
6672;DHT22;3372;48.690;12.362;2023-02-15T09:16:15;1.40;99.90
6672;DHT22;3372;48.690;12.362;2023-02-15T09:18:43;1.30;99.90
6672;DHT22;3372;48.690;12.362;2023-02-15T09:21:12;1.40;99.90
6672;DHT22;3372;48.690;12.362;2023-02-15T09:23:43;1.40;99.90
6672;DHT22;3372;48.690;12.362;2023-02-15T09:26:12;1.40;99.90
6672;DHT22;3372;48.690;12.362;2023-02-15T09:28:38;1.50;99.90
6672;DHT22;3372;48.690;12.362;2023-02-15T09:31:25;1.60;99.90
6672;DHT22;3372;48.690;12.362;2023-02-15T09:33:51;1.70;99.90
6672;DHT22;3372;48.690;12.362;2023-02-15T09:38:47;1.70;99.90
6672;DHT22;3372;48.690;12.362;2023-02-15T10:01:20;1.90;99.90
6672;DHT22;3372;48.690;12.362;2023-02-15T10:13:36;1.80;99.90
6672;DHT22;3372;48.690;12.362;2023-02-15T10:19:31;2.10;99.90
6672;DHT22;3372;48.690;12.362;2023-02-15T10:22:17;2.00;99.90
6672;DHT22;3372;48.690;12.362;2023-02-15T10:27:20;2.00;99.90
6672;DHT22;3372;48.690;12.362;2023-02-15T10:30:10;2.00;99.90
6672;DHT22;3372;48.690;12.362;2023-02-15T10:33:03;2.00;99.90
6672;DHT22;3372;48.690;12.362;2023-02-15T10:35:35;1.80;99.90
6672;DHT22;3372;48.690;12.362;2023-02-15T10:41:26;2.10;99.90
6672;DHT22;3372;48.690;12.362;2023-02-15T10:51:28;2.00;99.90
6672;DHT22;3372;48.690;12.362;2023-02-15T10:54:04;1.90;99.90
6672;DHT22;3372;48.690;12.362;2023-02-15T11:07:34;1.90;99.90
6672;DHT22;3372;48.690;12.362;2023-02-15T11:12:41;2.00;99.90
6672;DHT22;3372;48.690;12.362;2023-02-15T11:15:26;2.00;99.90
6672;DHT22;3372;48.690;12.362;2023-02-15T11:18:33;2.00;99.90
6672;DHT22;3372;48.690;12.362;2023-02-15T11:21:21;2.00;99.90
6672;DHT22;3372;48.690;12.362;2023-02-15T11:23:48;2.20;99.90
6672;DHT22;3372;48.690;12.362;2023-02-15T11:26:24;2.20;99.90
6672;DHT22;3372;48.690;12.362;2023-02-15T11:29:20;2.20;99.90
6672;DHT22;3372;48.690;12.362;2023-02-15T11:31:53;2.30;99.90
6672;DHT22;3372;48.690;12.362;2023-02-15T11:34:27;2.40;99.90
6672;DHT22;3372;48.690;12.362;2023-02-15T11:36:59;2.50;99.90
6672;DHT22;3372;48.690;12.362;2023-02-15T11:39:26;2.60;99.90
6672;DHT22;3372;48.690;12.362;2023-02-15T11:41:59;2.50;99.90
6672;DHT22;3372;48.690;12.362;2023-02-15T11:44:41;2.60;99.90
6672;DHT22;3372;48.690;12.362;2023-02-15T11:47:11;2.60;99.90
6672;DHT22;3372;48.690;12.362;2023-02-15T11:49:37;2.60;99.90
6672;DHT22;3372;48.690;12.362;2023-02-15T11:52:11;2.70;99.90
6672;DHT22;3372;48.690;12.362;2023-02-15T11:54:49;2.70;99.90
6672;DHT22;3372;48.690;12.362;2023-02-15T11:57:38;2.70;99.90
6672;DHT22;3372;48.690;12.362;2023-02-15T12:00:25;2.60;99.90
6672;DHT22;3372;48.690;12.362;2023-02-15T12:02:54;2.70;99.90
6672;DHT22;3372;48.690;12.362;2023-02-15T12:05:26;2.80;99.90
6672;DHT22;3372;48.690;12.362;2023-02-15T12:10:31;2.90;99.90
6672;DHT22;3372;48.690;12.362;2023-02-15T12:13:13;2.70;99.90
6672;DHT22;3372;48.690;12.362;2023-02-15T12:15:45;2.80;99.90
6672;DHT22;3372;48.690;12.362;2023-02-15T12:18:37;2.80;99.90
6672;DHT22;3372;48.690;12.362;2023-02-15T12:21:34;2.80;99.90
6672;DHT22;3372;48.690;12.362;2023-02-15T12:24:18;2.80;99.90
6672;DHT22;3372;48.690;12.362;2023-02-15T12:29:35;2.80;99.90
6672;DHT22;3372;48.690;12.362;2023-02-15T12:32:06;2.90;99.90
6672;DHT22;3372;48.690;12.362;2023-02-15T12:34:38;2.90;99.90
6672;DHT22;3372;48.690;12.362;2023-02-15T12:37:17;2.90;99.90
6672;DHT22;3372;48.690;12.362;2023-02-15T12:40:00;2.90;99.90
6672;DHT22;3372;48.690;12.362;2023-02-15T12:42:28;2.90;99.90
6672;DHT22;3372;48.690;12.362;2023-02-15T12:45:25;2.80;99.90
6672;DHT22;3372;48.690;12.362;2023-02-15T12:48:14;2.80;99.90
6672;DHT22;3372;48.690;12.362;2023-02-15T12:50:42;2.70;99.90
6672;DHT22;3372;48.690;12.362;2023-02-15T12:53:17;2.70;99.90
6672;DHT22;3372;48.690;12.362;2023-02-15T12:55:59;2.80;99.90
6672;DHT22;3372;48.690;12.362;2023-02-15T12:58:27;2.80;99.90
6672;DHT22;3372;48.690;12.362;2023-02-15T13:01:14;2.80;99.90
6672;DHT22;3372;48.690;12.362;2023-02-15T13:06:21;2.80;99.90
6672;DHT22;3372;48.690;12.362;2023-02-15T13:08:49;2.90;99.90
6672;DHT22;3372;48.690;12.362;2023-02-15T13:11:22;2.70;99.90
6672;DHT22;3372;48.690;12.362;2023-02-15T13:13:54;2.80;99.90
6672;DHT22;3372;48.690;12.362;2023-02-15T13:16:35;2.90;99.90
6672;DHT22;3372;48.690;12.362;2023-02-15T13:19:40;3.00;99.90
6672;DHT22;3372;48.690;12.362;2023-02-15T13:22:16;3.00;99.90
6672;DHT22;3372;48.690;12.362;2023-02-15T13:24:44;3.00;99.90
6672;DHT22;3372;48.690;12.362;2023-02-15T13:27:15;2.90;99.90
6672;DHT22;3372;48.690;12.362;2023-02-15T13:29:44;3.10;99.90
6672;DHT22;3372;48.690;12.362;2023-02-15T13:32:32;3.10;99.90
6672;DHT22;3372;48.690;12.362;2023-02-15T13:35:02;2.90;99.90
6672;DHT22;3372;48.690;12.362;2023-02-15T13:37:51;3.10;99.90
6672;DHT22;3372;48.690;12.362;2023-02-15T13:40:25;3.10;99.90
6672;DHT22;3372;48.690;12.362;2023-02-15T13:42:59;3.10;99.90
6672;DHT22;3372;48.690;12.362;2023-02-15T14:01:58;3.30;99.90
6672;DHT22;3372;48.690;12.362;2023-02-15T14:10:21;3.30;99.90
6672;DHT22;3372;48.690;12.362;2023-02-15T14:15:58;3.40;99.90
6672;DHT22;3372;48.690;12.362;2023-02-15T14:21:53;3.30;99.90
6672;DHT22;3372;48.690;12.362;2023-02-15T14:24:33;3.30;99.90
6672;DHT22;3372;48.690;12.362;2023-02-15T14:27:27;3.30;99.90
6672;DHT22;3372;48.690;12.362;2023-02-15T14:30:03;3.40;99.90
6672;DHT22;3372;48.690;12.362;2023-02-15T14:32:38;3.50;99.90
6672;DHT22;3372;48.690;12.362;2023-02-15T14:35:13;3.40;99.90
6672;DHT22;3372;48.690;12.362;2023-02-15T14:48:46;3.60;99.90
6672;DHT22;3372;48.690;12.362;2023-02-15T14:54:03;3.50;99.90
6672;DHT22;3372;48.690;12.362;2023-02-15T14:56:29;3.50;99.90
6672;DHT22;3372;48.690;12.362;2023-02-15T14:58:56;3.40;99.90
6672;DHT22;3372;48.690;12.362;2023-02-15T15:01:33;3.40;99.90
6672;DHT22;3372;48.690;12.362;2023-02-15T15:04:35;3.40;99.90
6672;DHT22;3372;48.690;12.362;2023-02-15T15:09:38;3.40;99.90
6672;DHT22;3372;48.690;12.362;2023-02-15T15:14:50;3.40;99.90
6672;DHT22;3372;48.690;12.362;2023-02-15T15:17:52;3.30;99.90
6672;DHT22;3372;48.690;12.362;2023-02-15T15:20:46;3.30;99.90
6672;DHT22;3372;48.690;12.362;2023-02-15T15:26:01;3.30;99.90
6672;DHT22;3372;48.690;12.362;2023-02-15T15:31:22;3.30;99.90
6672;DHT22;3372;48.690;12.362;2023-02-15T15:34:19;3.30;99.90
6672;DHT22;3372;48.690;12.362;2023-02-15T15:45:16;3.40;99.90
6672;DHT22;3372;48.690;12.362;2023-02-15T15:50:39;3.30;99.90
6672;DHT22;3372;48.690;12.362;2023-02-15T15:53:06;3.30;99.90
6672;DHT22;3372;48.690;12.362;2023-02-15T15:55:41;3.30;99.90
6672;DHT22;3372;48.690;12.362;2023-02-15T15:58:08;3.20;99.90
6672;DHT22;3372;48.690;12.362;2023-02-15T16:00:47;3.20;99.90
6672;DHT22;3372;48.690;12.362;2023-02-15T16:03:27;3.20;99.90
6672;DHT22;3372;48.690;12.362;2023-02-15T16:05:54;3.20;99.90
6672;DHT22;3372;48.690;12.362;2023-02-15T16:08:38;3.20;99.90
6672;DHT22;3372;48.690;12.362;2023-02-15T16:11:21;3.20;99.90
6672;DHT22;3372;48.690;12.362;2023-02-15T16:13:48;3.10;99.90
6672;DHT22;3372;48.690;12.362;2023-02-15T16:16:20;3.10;99.90
6672;DHT22;3372;48.690;12.362;2023-02-15T16:18:47;3.20;99.90
6672;DHT22;3372;48.690;12.362;2023-02-15T16:21:28;3.20;99.90
6672;DHT22;3372;48.690;12.362;2023-02-15T16:29:33;3.20;99.90
6672;DHT22;3372;48.690;12.362;2023-02-15T16:32:20;3.20;99.90
6672;DHT22;3372;48.690;12.362;2023-02-15T16:34:58;3.20;99.90
6672;DHT22;3372;48.690;12.362;2023-02-15T16:37:26;3.20;99.90
6672;DHT22;3372;48.690;12.362;2023-02-15T16:39:53;3.20;99.90
6672;DHT22;3372;48.690;12.362;2023-02-15T16:42:19;3.30;99.90
6672;DHT22;3372;48.690;12.362;2023-02-15T16:45:07;3.20;99.90
6672;DHT22;3372;48.690;12.362;2023-02-15T16:47:41;3.20;99.90
6672;DHT22;3372;48.690;12.362;2023-02-15T16:50:21;3.20;99.90
6672;DHT22;3372;48.690;12.362;2023-02-15T16:52:47;3.10;99.90
6672;DHT22;3372;48.690;12.362;2023-02-15T16:55:29;3.10;99.90
6672;DHT22;3372;48.690;12.362;2023-02-15T16:58:01;3.10;99.90
6672;DHT22;3372;48.690;12.362;2023-02-15T17:00:31;3.10;99.90
6672;DHT22;3372;48.690;12.362;2023-02-15T17:03:21;3.10;99.90
6672;DHT22;3372;48.690;12.362;2023-02-15T17:05:51;3.20;99.90
6672;DHT22;3372;48.690;12.362;2023-02-15T17:08:18;3.10;99.90
6672;DHT22;3372;48.690;12.362;2023-02-15T17:11:04;3.10;99.90
6672;DHT22;3372;48.690;12.362;2023-02-15T17:13:34;3.10;99.90
6672;DHT22;3372;48.690;12.362;2023-02-15T17:18:34;3.20;99.90
6672;DHT22;3372;48.690;12.362;2023-02-15T17:21:12;3.20;99.90
6672;DHT22;3372;48.690;12.362;2023-02-15T17:23:44;3.10;99.90
6672;DHT22;3372;48.690;12.362;2023-02-15T17:26:26;3.10;99.90
6672;DHT22;3372;48.690;12.362;2023-02-15T17:28:59;3.10;99.90
6672;DHT22;3372;48.690;12.362;2023-02-15T17:31:29;3.10;99.90
6672;DHT22;3372;48.690;12.362;2023-02-15T17:33:56;3.00;99.90
6672;DHT22;3372;48.690;12.362;2023-02-15T17:36:26;2.90;99.90
6672;DHT22;3372;48.690;12.362;2023-02-15T17:41:26;2.90;99.90
6672;DHT22;3372;48.690;12.362;2023-02-15T17:43:52;2.90;99.90
6672;DHT22;3372;48.690;12.362;2023-02-15T17:46:18;2.90;99.90
6672;DHT22;3372;48.690;12.362;2023-02-15T17:48:48;2.90;99.90
6672;DHT22;3372;48.690;12.362;2023-02-15T17:51:15;2.90;99.90
6672;DHT22;3372;48.690;12.362;2023-02-15T17:53:42;2.90;99.90
6672;DHT22;3372;48.690;12.362;2023-02-15T17:56:31;2.90;99.90
6672;DHT22;3372;48.690;12.362;2023-02-15T17:58:56;2.90;99.90
6672;DHT22;3372;48.690;12.362;2023-02-15T18:01:22;2.90;99.90
6672;DHT22;3372;48.690;12.362;2023-02-15T18:04:14;3.00;99.90
6672;DHT22;3372;48.690;12.362;2023-02-15T18:06:59;2.90;99.90
6672;DHT22;3372;48.690;12.362;2023-02-15T18:09:43;2.90;99.90
6672;DHT22;3372;48.690;12.362;2023-02-15T18:12:33;2.80;99.90
6672;DHT22;3372;48.690;12.362;2023-02-15T18:14:59;2.90;99.90
6672;DHT22;3372;48.690;12.362;2023-02-15T18:17:32;3.00;99.90
6672;DHT22;3372;48.690;12.362;2023-02-15T18:20:00;2.80;99.90
6672;DHT22;3372;48.690;12.362;2023-02-15T18:22:28;2.90;99.90
6672;DHT22;3372;48.690;12.362;2023-02-15T18:24:54;2.90;99.90
6672;DHT22;3372;48.690;12.362;2023-02-15T18:27:19;2.90;99.90
6672;DHT22;3372;48.690;12.362;2023-02-15T18:29:46;2.90;99.90
6672;DHT22;3372;48.690;12.362;2023-02-15T18:32:21;2.80;99.90
6672;DHT22;3372;48.690;12.362;2023-02-15T18:34:50;2.80;99.90
6672;DHT22;3372;48.690;12.362;2023-02-15T18:37:19;2.80;99.90
6672;DHT22;3372;48.690;12.362;2023-02-15T18:39:50;2.80;99.90
6672;DHT22;3372;48.690;12.362;2023-02-15T18:42:24;2.80;99.90
6672;DHT22;3372;48.690;12.362;2023-02-15T18:44:59;2.80;99.90
6672;DHT22;3372;48.690;12.362;2023-02-15T18:47:26;2.80;99.90
6672;DHT22;3372;48.690;12.362;2023-02-15T18:49:52;2.80;99.90
6672;DHT22;3372;48.690;12.362;2023-02-15T18:52:25;2.80;99.90
6672;DHT22;3372;48.690;12.362;2023-02-15T18:54:59;2.90;99.90
6672;DHT22;3372;48.690;12.362;2023-02-15T18:57:27;2.90;99.90
6672;DHT22;3372;48.690;12.362;2023-02-15T18:59:53;2.80;99.90
6672;DHT22;3372;48.690;12.362;2023-02-15T19:02:19;2.80;99.90
6672;DHT22;3372;48.690;12.362;2023-02-15T19:04:45;2.80;99.90
6672;DHT22;3372;48.690;12.362;2023-02-15T19:07:26;2.70;99.90
6672;DHT22;3372;48.690;12.362;2023-02-15T19:09:56;2.70;99.90
6672;DHT22;3372;48.690;12.362;2023-02-15T19:12:22;2.70;99.90
6672;DHT22;3372;48.690;12.362;2023-02-15T19:14:48;2.70;99.90
6672;DHT22;3372;48.690;12.362;2023-02-15T19:17:19;2.70;99.90
6672;DHT22;3372;48.690;12.362;2023-02-15T19:19:45;2.70;99.90
6672;DHT22;3372;48.690;12.362;2023-02-15T19:22:14;2.80;99.90